sensor_id;sensor_type;location;lat;lon;timestamp;P1;durP1;ratioP1;P2;durP2;ratioP2
72755;SDS011;60881;55.002;73.232;2022-10-16T00:01:33;24.88;;;10.18;;
72755;SDS011;60881;55.002;73.232;2022-10-16T00:04:05;29.90;;;9.73;;
72755;SDS011;60881;55.002;73.232;2022-10-16T00:06:33;26.15;;;9.75;;
72755;SDS011;60881;55.002;73.232;2022-10-16T00:09:00;24.73;;;9.90;;
72755;SDS011;60881;55.002;73.232;2022-10-16T00:11:32;32.47;;;9.50;;
72755;SDS011;60881;55.002;73.232;2022-10-16T00:14:04;36.72;;;7.43;;
72755;SDS011;60881;55.002;73.232;2022-10-16T00:16:34;35.50;;;8.85;;
72755;SDS011;60881;55.002;73.232;2022-10-16T00:19:01;31.95;;;9.07;;
72755;SDS011;60881;55.002;73.232;2022-10-16T00:21:28;30.10;;;9.30;;
72755;SDS011;60881;55.002;73.232;2022-10-16T00:23:57;30.00;;;9.43;;
72755;SDS011;60881;55.002;73.232;2022-10-16T00:26:26;24.30;;;8.30;;
72755;SDS011;60881;55.002;73.232;2022-10-16T00:28:53;25.65;;;8.30;;
72755;SDS011;60881;55.002;73.232;2022-10-16T00:31:22;28.92;;;8.20;;
72755;SDS011;60881;55.002;73.232;2022-10-16T00:33:49;53.13;;;8.93;;
72755;SDS011;60881;55.002;73.232;2022-10-16T00:36:20;34.90;;;8.55;;
72755;SDS011;60881;55.002;73.232;2022-10-16T00:38:55;38.45;;;8.52;;
72755;SDS011;60881;55.002;73.232;2022-10-16T00:41:25;31.33;;;9.10;;
72755;SDS011;60881;55.002;73.232;2022-10-16T00:43:53;28.67;;;8.60;;
72755;SDS011;60881;55.002;73.232;2022-10-16T00:51:52;30.08;;;8.35;;
72755;SDS011;60881;55.002;73.232;2022-10-16T00:54:23;26.77;;;8.27;;
72755;SDS011;60881;55.002;73.232;2022-10-16T00:56:52;19.75;;;7.60;;
72755;SDS011;60881;55.002;73.232;2022-10-16T00:59:24;31.73;;;8.00;;
72755;SDS011;60881;55.002;73.232;2022-10-16T01:01:54;23.77;;;6.35;;
72755;SDS011;60881;55.002;73.232;2022-10-16T01:04:23;33.40;;;8.10;;
72755;SDS011;60881;55.002;73.232;2022-10-16T01:09:31;34.10;;;7.68;;
72755;SDS011;60881;55.002;73.232;2022-10-16T01:12:10;30.33;;;8.00;;
72755;SDS011;60881;55.002;73.232;2022-10-16T01:18:23;22.30;;;6.68;;
72755;SDS011;60881;55.002;73.232;2022-10-16T01:20:37;32.72;;;7.80;;
72755;SDS011;60881;55.002;73.232;2022-10-16T01:23:51;37.88;;;8.02;;
72755;SDS011;60881;55.002;73.232;2022-10-16T01:29:32;30.10;;;7.20;;
72755;SDS011;60881;55.002;73.232;2022-10-16T01:32:08;29.30;;;7.40;;
72755;SDS011;60881;55.002;73.232;2022-10-16T01:34:51;31.02;;;7.50;;
72755;SDS011;60881;55.002;73.232;2022-10-16T01:37:25;29.70;;;7.25;;
72755;SDS011;60881;55.002;73.232;2022-10-16T01:39:59;22.40;;;7.03;;
72755;SDS011;60881;55.002;73.232;2022-10-16T01:42:30;25.35;;;6.85;;
72755;SDS011;60881;55.002;73.232;2022-10-16T01:45:02;23.30;;;6.75;;
72755;SDS011;60881;55.002;73.232;2022-10-16T01:47:33;23.27;;;6.65;;
72755;SDS011;60881;55.002;73.232;2022-10-16T01:50:02;19.00;;;6.30;;
72755;SDS011;60881;55.002;73.232;2022-10-16T01:52:32;24.20;;;6.80;;
72755;SDS011;60881;55.002;73.232;2022-10-16T01:55:14;21.83;;;7.20;;
72755;SDS011;60881;55.002;73.232;2022-10-16T01:57:44;17.58;;;6.97;;
72755;SDS011;60881;55.002;73.232;2022-10-16T02:00:16;24.05;;;7.15;;
72755;SDS011;60881;55.002;73.232;2022-10-16T02:02:45;18.63;;;7.03;;
72755;SDS011;60881;55.002;73.232;2022-10-16T02:05:18;25.48;;;7.20;;
72755;SDS011;60881;55.002;73.232;2022-10-16T02:08:02;18.40;;;6.82;;
72755;SDS011;60881;55.002;73.232;2022-10-16T02:10:31;18.17;;;7.20;;
72755;SDS011;60881;55.002;73.232;2022-10-16T02:13:03;26.48;;;7.28;;
72755;SDS011;60881;55.002;73.232;2022-10-16T02:15:45;27.80;;;7.80;;
72755;SDS011;60881;55.002;73.232;2022-10-16T02:18:11;26.60;;;7.53;;
72755;SDS011;60881;55.002;73.232;2022-10-16T02:20:47;29.75;;;7.25;;
72755;SDS011;60881;55.002;73.232;2022-10-16T02:23:20;28.17;;;7.53;;
72755;SDS011;60881;55.002;73.232;2022-10-16T02:26:27;27.17;;;7.30;;
72755;SDS011;60881;55.002;73.232;2022-10-16T02:29:10;28.58;;;7.63;;
72755;SDS011;60881;55.002;73.232;2022-10-16T02:31:43;27.38;;;7.97;;
72755;SDS011;60881;55.002;73.232;2022-10-16T02:34:14;28.02;;;7.55;;
72755;SDS011;60881;55.002;73.232;2022-10-16T02:36:43;39.47;;;8.05;;
72755;SDS011;60881;55.002;73.232;2022-10-16T02:39:11;31.88;;;7.45;;
72755;SDS011;60881;55.002;73.232;2022-10-16T02:41:39;29.02;;;7.07;;
72755;SDS011;60881;55.002;73.232;2022-10-16T02:44:16;39.50;;;7.68;;
72755;SDS011;60881;55.002;73.232;2022-10-16T02:46:43;28.73;;;7.90;;
72755;SDS011;60881;55.002;73.232;2022-10-16T02:49:10;31.27;;;8.23;;
72755;SDS011;60881;55.002;73.232;2022-10-16T02:51:40;33.15;;;8.77;;
72755;SDS011;60881;55.002;73.232;2022-10-16T02:54:07;47.28;;;9.95;;
72755;SDS011;60881;55.002;73.232;2022-10-16T02:56:35;48.60;;;10.52;;
72755;SDS011;60881;55.002;73.232;2022-10-16T02:59:06;41.45;;;10.65;;
72755;SDS011;60881;55.002;73.232;2022-10-16T03:01:42;52.65;;;12.23;;
72755;SDS011;60881;55.002;73.232;2022-10-16T03:04:09;51.40;;;13.38;;
72755;SDS011;60881;55.002;73.232;2022-10-16T03:06:36;62.50;;;14.88;;
72755;SDS011;60881;55.002;73.232;2022-10-16T03:09:06;45.95;;;14.30;;
72755;SDS011;60881;55.002;73.232;2022-10-16T03:11:32;43.25;;;15.07;;
72755;SDS011;60881;55.002;73.232;2022-10-16T03:13:59;56.92;;;16.08;;
72755;SDS011;60881;55.002;73.232;2022-10-16T03:16:31;57.30;;;15.10;;
72755;SDS011;60881;55.002;73.232;2022-10-16T03:18:58;59.45;;;16.00;;
72755;SDS011;60881;55.002;73.232;2022-10-16T03:21:26;66.20;;;15.98;;
72755;SDS011;60881;55.002;73.232;2022-10-16T03:23:52;50.90;;;16.25;;
72755;SDS011;60881;55.002;73.232;2022-10-16T03:26:19;49.80;;;16.48;;
72755;SDS011;60881;55.002;73.232;2022-10-16T03:28:45;45.80;;;15.65;;
72755;SDS011;60881;55.002;73.232;2022-10-16T03:31:22;42.97;;;15.48;;
72755;SDS011;60881;55.002;73.232;2022-10-16T03:33:49;38.13;;;14.60;;
72755;SDS011;60881;55.002;73.232;2022-10-16T03:36:15;44.60;;;14.77;;
72755;SDS011;60881;55.002;73.232;2022-10-16T03:38:42;49.47;;;13.68;;
72755;SDS011;60881;55.002;73.232;2022-10-16T03:41:09;51.88;;;14.00;;
72755;SDS011;60881;55.002;73.232;2022-10-16T03:43:35;39.10;;;14.43;;
72755;SDS011;60881;55.002;73.232;2022-10-16T03:46:01;46.30;;;14.38;;
72755;SDS011;60881;55.002;73.232;2022-10-16T03:48:36;55.95;;;14.05;;
72755;SDS011;60881;55.002;73.232;2022-10-16T03:51:02;47.38;;;13.65;;
72755;SDS011;60881;55.002;73.232;2022-10-16T03:53:29;43.88;;;14.27;;
72755;SDS011;60881;55.002;73.232;2022-10-16T03:55:55;53.58;;;13.77;;
72755;SDS011;60881;55.002;73.232;2022-10-16T03:58:22;52.40;;;13.20;;
72755;SDS011;60881;55.002;73.232;2022-10-16T04:00:48;47.00;;;13.35;;
72755;SDS011;60881;55.002;73.232;2022-10-16T04:03:15;52.15;;;14.07;;
72755;SDS011;60881;55.002;73.232;2022-10-16T04:05:42;46.80;;;13.45;;
72755;SDS011;60881;55.002;73.232;2022-10-16T04:08:11;59.40;;;14.80;;
72755;SDS011;60881;55.002;73.232;2022-10-16T04:10:37;56.42;;;14.40;;
72755;SDS011;60881;55.002;73.232;2022-10-16T04:13:04;49.22;;;14.13;;
72755;SDS011;60881;55.002;73.232;2022-10-16T04:15:33;45.20;;;15.18;;
72755;SDS011;60881;55.002;73.232;2022-10-16T04:18:00;44.85;;;14.90;;
72755;SDS011;60881;55.002;73.232;2022-10-16T04:20:27;51.90;;;14.43;;
72755;SDS011;60881;55.002;73.232;2022-10-16T04:22:55;54.65;;;14.20;;
72755;SDS011;60881;55.002;73.232;2022-10-16T04:25:23;48.22;;;15.45;;
72755;SDS011;60881;55.002;73.232;2022-10-16T04:27:52;42.42;;;14.50;;
72755;SDS011;60881;55.002;73.232;2022-10-16T04:30:20;48.22;;;15.77;;
72755;SDS011;60881;55.002;73.232;2022-10-16T04:32:51;42.90;;;14.93;;
72755;SDS011;60881;55.002;73.232;2022-10-16T04:35:18;58.95;;;15.32;;
72755;SDS011;60881;55.002;73.232;2022-10-16T04:37:47;46.63;;;16.48;;
72755;SDS011;60881;55.002;73.232;2022-10-16T04:40:14;49.20;;;16.10;;
72755;SDS011;60881;55.002;73.232;2022-10-16T04:42:46;56.28;;;16.45;;
72755;SDS011;60881;55.002;73.232;2022-10-16T04:45:13;49.60;;;16.30;;
72755;SDS011;60881;55.002;73.232;2022-10-16T04:47:39;51.78;;;16.50;;
72755;SDS011;60881;55.002;73.232;2022-10-16T04:50:06;44.20;;;16.75;;
72755;SDS011;60881;55.002;73.232;2022-10-16T04:52:37;50.58;;;18.20;;
72755;SDS011;60881;55.002;73.232;2022-10-16T04:55:03;54.42;;;18.38;;
72755;SDS011;60881;55.002;73.232;2022-10-16T04:57:31;57.78;;;18.50;;
72755;SDS011;60881;55.002;73.232;2022-10-16T05:00:04;68.85;;;19.10;;
72755;SDS011;60881;55.002;73.232;2022-10-16T05:02:31;52.40;;;16.88;;
72755;SDS011;60881;55.002;73.232;2022-10-16T05:04:58;43.83;;;18.02;;
72755;SDS011;60881;55.002;73.232;2022-10-16T05:07:25;55.80;;;17.92;;
72755;SDS011;60881;55.002;73.232;2022-10-16T05:09:51;54.10;;;16.38;;
72755;SDS011;60881;55.002;73.232;2022-10-16T05:12:22;42.92;;;16.17;;
72755;SDS011;60881;55.002;73.232;2022-10-16T05:14:50;49.20;;;16.30;;
72755;SDS011;60881;55.002;73.232;2022-10-16T05:17:17;48.75;;;15.00;;
72755;SDS011;60881;55.002;73.232;2022-10-16T05:19:43;47.53;;;15.32;;
72755;SDS011;60881;55.002;73.232;2022-10-16T05:22:11;39.45;;;14.23;;
72755;SDS011;60881;55.002;73.232;2022-10-16T05:24:38;39.25;;;14.32;;
72755;SDS011;60881;55.002;73.232;2022-10-16T05:27:04;38.53;;;14.73;;
72755;SDS011;60881;55.002;73.232;2022-10-16T05:29:38;41.53;;;14.83;;
72755;SDS011;60881;55.002;73.232;2022-10-16T05:32:04;44.35;;;14.38;;
72755;SDS011;60881;55.002;73.232;2022-10-16T05:34:34;31.00;;;13.68;;
72755;SDS011;60881;55.002;73.232;2022-10-16T05:37:01;40.67;;;12.50;;
72755;SDS011;60881;55.002;73.232;2022-10-16T05:39:27;38.50;;;12.68;;
72755;SDS011;60881;55.002;73.232;2022-10-16T05:41:54;41.15;;;12.15;;
72755;SDS011;60881;55.002;73.232;2022-10-16T05:44:20;30.67;;;11.68;;
72755;SDS011;60881;55.002;73.232;2022-10-16T05:46:51;29.58;;;11.18;;
72755;SDS011;60881;55.002;73.232;2022-10-16T05:49:17;34.08;;;10.60;;
72755;SDS011;60881;55.002;73.232;2022-10-16T05:51:44;32.08;;;9.85;;
72755;SDS011;60881;55.002;73.232;2022-10-16T05:54:13;32.92;;;9.40;;
72755;SDS011;60881;55.002;73.232;2022-10-16T05:56:41;24.73;;;8.68;;
72755;SDS011;60881;55.002;73.232;2022-10-16T05:59:08;19.50;;;7.20;;
72755;SDS011;60881;55.002;73.232;2022-10-16T06:01:35;13.55;;;5.28;;
72755;SDS011;60881;55.002;73.232;2022-10-16T06:04:02;16.88;;;5.13;;
72755;SDS011;60881;55.002;73.232;2022-10-16T06:06:29;17.05;;;5.28;;
72755;SDS011;60881;55.002;73.232;2022-10-16T06:08:57;16.50;;;4.97;;
72755;SDS011;60881;55.002;73.232;2022-10-16T06:11:26;18.73;;;5.38;;
72755;SDS011;60881;55.002;73.232;2022-10-16T06:13:55;16.05;;;5.38;;
72755;SDS011;60881;55.002;73.232;2022-10-16T06:16:24;16.33;;;5.53;;
72755;SDS011;60881;55.002;73.232;2022-10-16T06:18:53;16.67;;;5.38;;
72755;SDS011;60881;55.002;73.232;2022-10-16T06:21:23;13.80;;;6.20;;
72755;SDS011;60881;55.002;73.232;2022-10-16T06:23:51;15.80;;;5.90;;
72755;SDS011;60881;55.002;73.232;2022-10-16T06:26:19;14.77;;;5.75;;
72755;SDS011;60881;55.002;73.232;2022-10-16T06:28:48;12.68;;;6.53;;
72755;SDS011;60881;55.002;73.232;2022-10-16T06:31:15;17.98;;;6.05;;
72755;SDS011;60881;55.002;73.232;2022-10-16T06:33:43;13.10;;;5.15;;
72755;SDS011;60881;55.002;73.232;2022-10-16T06:36:15;16.65;;;4.80;;
72755;SDS011;60881;55.002;73.232;2022-10-16T06:38:43;13.88;;;5.10;;
72755;SDS011;60881;55.002;73.232;2022-10-16T06:41:11;22.90;;;7.35;;
72755;SDS011;60881;55.002;73.232;2022-10-16T06:43:41;33.95;;;20.40;;
72755;SDS011;60881;55.002;73.232;2022-10-16T06:46:09;18.38;;;6.55;;
72755;SDS011;60881;55.002;73.232;2022-10-16T06:48:38;13.98;;;5.32;;
72755;SDS011;60881;55.002;73.232;2022-10-16T06:51:05;16.45;;;4.78;;
72755;SDS011;60881;55.002;73.232;2022-10-16T06:53:36;26.23;;;12.15;;
72755;SDS011;60881;55.002;73.232;2022-10-16T06:56:13;12.48;;;3.70;;
72755;SDS011;60881;55.002;73.232;2022-10-16T06:58:41;11.82;;;3.50;;
72755;SDS011;60881;55.002;73.232;2022-10-16T07:01:09;11.00;;;4.35;;
72755;SDS011;60881;55.002;73.232;2022-10-16T07:03:37;9.52;;;4.10;;
72755;SDS011;60881;55.002;73.232;2022-10-16T07:06:06;15.02;;;4.07;;
72755;SDS011;60881;55.002;73.232;2022-10-16T07:08:41;9.43;;;4.78;;
72755;SDS011;60881;55.002;73.232;2022-10-16T07:11:14;20.77;;;6.85;;
72755;SDS011;60881;55.002;73.232;2022-10-16T07:13:43;19.15;;;6.70;;
72755;SDS011;60881;55.002;73.232;2022-10-16T07:16:12;11.30;;;5.60;;
72755;SDS011;60881;55.002;73.232;2022-10-16T07:18:44;15.55;;;5.53;;
72755;SDS011;60881;55.002;73.232;2022-10-16T07:21:14;12.02;;;5.38;;
72755;SDS011;60881;55.002;73.232;2022-10-16T07:26:16;14.20;;;5.13;;
72755;SDS011;60881;55.002;73.232;2022-10-16T07:28:43;13.48;;;4.00;;
72755;SDS011;60881;55.002;73.232;2022-10-16T07:31:11;11.35;;;3.85;;
72755;SDS011;60881;55.002;73.232;2022-10-16T07:33:40;9.82;;;3.65;;
72755;SDS011;60881;55.002;73.232;2022-10-16T07:36:08;10.73;;;3.40;;
72755;SDS011;60881;55.002;73.232;2022-10-16T07:38:37;5.93;;;3.25;;
72755;SDS011;60881;55.002;73.232;2022-10-16T07:41:05;13.20;;;3.08;;
72755;SDS011;60881;55.002;73.232;2022-10-16T07:43:33;8.43;;;4.30;;
72755;SDS011;60881;55.002;73.232;2022-10-16T07:46:10;8.02;;;3.42;;
72755;SDS011;60881;55.002;73.232;2022-10-16T07:48:37;15.20;;;3.70;;
72755;SDS011;60881;55.002;73.232;2022-10-16T07:51:05;11.13;;;4.40;;
72755;SDS011;60881;55.002;73.232;2022-10-16T07:53:33;11.75;;;4.57;;
72755;SDS011;60881;55.002;73.232;2022-10-16T07:56:03;10.20;;;4.20;;
72755;SDS011;60881;55.002;73.232;2022-10-16T07:58:31;11.88;;;4.50;;
72755;SDS011;60881;55.002;73.232;2022-10-16T08:01:02;7.70;;;3.50;;
72755;SDS011;60881;55.002;73.232;2022-10-16T08:03:34;9.65;;;3.45;;
72755;SDS011;60881;55.002;73.232;2022-10-16T08:06:01;22.83;;;8.43;;
72755;SDS011;60881;55.002;73.232;2022-10-16T08:08:29;13.88;;;7.00;;
72755;SDS011;60881;55.002;73.232;2022-10-16T08:10:57;26.80;;;6.13;;
72755;SDS011;60881;55.002;73.232;2022-10-16T08:13:24;25.85;;;8.80;;
72755;SDS011;60881;55.002;73.232;2022-10-16T08:15:53;17.90;;;6.50;;
72755;SDS011;60881;55.002;73.232;2022-10-16T08:18:21;22.95;;;9.50;;
72755;SDS011;60881;55.002;73.232;2022-10-16T08:20:54;22.15;;;9.38;;
72755;SDS011;60881;55.002;73.232;2022-10-16T08:23:26;29.85;;;7.15;;
72755;SDS011;60881;55.002;73.232;2022-10-16T08:25:53;24.75;;;6.95;;
72755;SDS011;60881;55.002;73.232;2022-10-16T08:28:21;19.23;;;7.05;;
72755;SDS011;60881;55.002;73.232;2022-10-16T08:30:48;37.40;;;12.13;;
72755;SDS011;60881;55.002;73.232;2022-10-16T08:33:14;51.50;;;22.52;;
72755;SDS011;60881;55.002;73.232;2022-10-16T08:35:41;29.80;;;10.00;;
72755;SDS011;60881;55.002;73.232;2022-10-16T08:38:09;36.45;;;8.77;;
72755;SDS011;60881;55.002;73.232;2022-10-16T08:40:36;23.92;;;7.45;;
72755;SDS011;60881;55.002;73.232;2022-10-16T08:48:49;17.85;;;4.68;;
72755;SDS011;60881;55.002;73.232;2022-10-16T08:51:28;47.80;;;10.23;;
72755;SDS011;60881;55.002;73.232;2022-10-16T08:54:04;29.30;;;7.82;;
72755;SDS011;60881;55.002;73.232;2022-10-16T08:58:59;12.88;;;2.97;;
72755;SDS011;60881;55.002;73.232;2022-10-16T09:01:42;9.10;;;2.10;;
72755;SDS011;60881;55.002;73.232;2022-10-16T09:12:52;20.75;;;4.88;;
72755;SDS011;60881;55.002;73.232;2022-10-16T09:15:32;11.80;;;3.42;;
72755;SDS011;60881;55.002;73.232;2022-10-16T09:18:06;13.05;;;3.17;;
72755;SDS011;60881;55.002;73.232;2022-10-16T09:20:53;6.93;;;2.90;;
72755;SDS011;60881;55.002;73.232;2022-10-16T09:23:54;9.43;;;3.10;;
72755;SDS011;60881;55.002;73.232;2022-10-16T09:26:26;8.68;;;3.50;;
72755;SDS011;60881;55.002;73.232;2022-10-16T09:28:54;8.60;;;2.50;;
72755;SDS011;60881;55.002;73.232;2022-10-16T09:31:21;10.43;;;2.78;;
72755;SDS011;60881;55.002;73.232;2022-10-16T09:33:51;6.43;;;2.78;;
72755;SDS011;60881;55.002;73.232;2022-10-16T09:36:21;6.05;;;2.67;;
72755;SDS011;60881;55.002;73.232;2022-10-16T09:38:49;9.38;;;2.88;;
72755;SDS011;60881;55.002;73.232;2022-10-16T09:41:20;10.20;;;4.80;;
72755;SDS011;60881;55.002;73.232;2022-10-16T09:43:51;7.80;;;3.90;;
72755;SDS011;60881;55.002;73.232;2022-10-16T09:46:27;11.15;;;3.90;;
72755;SDS011;60881;55.002;73.232;2022-10-16T09:49:03;5.75;;;3.30;;
72755;SDS011;60881;55.002;73.232;2022-10-16T09:51:33;7.60;;;3.10;;
72755;SDS011;60881;55.002;73.232;2022-10-16T09:56:36;12.93;;;5.53;;
72755;SDS011;60881;55.002;73.232;2022-10-16T09:59:11;14.05;;;7.10;;
72755;SDS011;60881;55.002;73.232;2022-10-16T10:01:41;22.80;;;11.27;;
72755;SDS011;60881;55.002;73.232;2022-10-16T10:04:16;12.30;;;5.82;;
72755;SDS011;60881;55.002;73.232;2022-10-16T10:06:48;7.80;;;4.40;;
72755;SDS011;60881;55.002;73.232;2022-10-16T10:12:26;14.30;;;6.82;;
72755;SDS011;60881;55.002;73.232;2022-10-16T10:14:55;15.85;;;8.18;;
72755;SDS011;60881;55.002;73.232;2022-10-16T10:17:24;16.17;;;7.65;;
72755;SDS011;60881;55.002;73.232;2022-10-16T10:33:50;23.02;;;9.95;;
72755;SDS011;60881;55.002;73.232;2022-10-16T10:39:03;18.52;;;8.40;;
72755;SDS011;60881;55.002;73.232;2022-10-16T10:41:52;15.52;;;6.45;;
72755;SDS011;60881;55.002;73.232;2022-10-16T10:47:50;19.67;;;8.55;;
72755;SDS011;60881;55.002;73.232;2022-10-16T10:58:54;35.65;;;15.35;;
72755;SDS011;60881;55.002;73.232;2022-10-16T11:06:58;68.75;;;29.27;;
72755;SDS011;60881;55.002;73.232;2022-10-16T11:09:48;72.72;;;33.05;;
72755;SDS011;60881;55.002;73.232;2022-10-16T11:12:42;49.45;;;22.73;;
72755;SDS011;60881;55.002;73.232;2022-10-16T11:18:05;29.40;;;10.63;;
72755;SDS011;60881;55.002;73.232;2022-10-16T11:20:40;49.58;;;27.40;;
72755;SDS011;60881;55.002;73.232;2022-10-16T11:23:28;30.67;;;16.38;;
72755;SDS011;60881;55.002;73.232;2022-10-16T11:26:04;22.60;;;12.50;;
72755;SDS011;60881;55.002;73.232;2022-10-16T11:28:44;24.90;;;13.85;;
72755;SDS011;60881;55.002;73.232;2022-10-16T11:33:45;23.88;;;12.90;;
72755;SDS011;60881;55.002;73.232;2022-10-16T11:39:29;22.70;;;9.68;;
72755;SDS011;60881;55.002;73.232;2022-10-16T11:47:45;30.38;;;11.18;;
72755;SDS011;60881;55.002;73.232;2022-10-16T11:53:15;56.38;;;29.77;;
72755;SDS011;60881;55.002;73.232;2022-10-16T11:55:48;24.45;;;9.18;;
72755;SDS011;60881;55.002;73.232;2022-10-16T12:08:40;31.15;;;7.38;;
72755;SDS011;60881;55.002;73.232;2022-10-16T12:11:32;14.95;;;4.68;;
72755;SDS011;60881;55.002;73.232;2022-10-16T12:19:21;23.40;;;8.48;;
72755;SDS011;60881;55.002;73.232;2022-10-16T12:21:49;12.80;;;3.88;;
72755;SDS011;60881;55.002;73.232;2022-10-16T12:24:29;10.73;;;3.80;;
72755;SDS011;60881;55.002;73.232;2022-10-16T12:27:01;10.68;;;4.03;;
72755;SDS011;60881;55.002;73.232;2022-10-16T12:31:59;14.30;;;4.35;;
72755;SDS011;60881;55.002;73.232;2022-10-16T12:37:22;12.52;;;3.80;;
72755;SDS011;60881;55.002;73.232;2022-10-16T12:39:52;14.27;;;4.72;;
72755;SDS011;60881;55.002;73.232;2022-10-16T12:44:55;13.10;;;5.57;;
72755;SDS011;60881;55.002;73.232;2022-10-16T12:49:59;19.17;;;8.45;;
72755;SDS011;60881;55.002;73.232;2022-10-16T12:52:34;25.05;;;9.30;;
72755;SDS011;60881;55.002;73.232;2022-10-16T12:55:02;24.92;;;9.70;;
72755;SDS011;60881;55.002;73.232;2022-10-16T12:57:35;21.00;;;9.70;;
72755;SDS011;60881;55.002;73.232;2022-10-16T13:06:29;35.25;;;8.45;;
72755;SDS011;60881;55.002;73.232;2022-10-16T13:09:22;23.33;;;7.88;;
72755;SDS011;60881;55.002;73.232;2022-10-16T13:12:06;18.63;;;7.10;;
72755;SDS011;60881;55.002;73.232;2022-10-16T13:17:36;26.70;;;7.25;;
72755;SDS011;60881;55.002;73.232;2022-10-16T13:20:26;18.50;;;7.45;;
72755;SDS011;60881;55.002;73.232;2022-10-16T13:23:03;20.25;;;8.32;;
72755;SDS011;60881;55.002;73.232;2022-10-16T13:25:45;24.60;;;8.18;;
72755;SDS011;60881;55.002;73.232;2022-10-16T13:28:42;29.23;;;8.15;;
72755;SDS011;60881;55.002;73.232;2022-10-16T13:31:12;27.08;;;8.35;;
72755;SDS011;60881;55.002;73.232;2022-10-16T13:33:47;39.85;;;10.18;;
72755;SDS011;60881;55.002;73.232;2022-10-16T13:36:28;25.58;;;9.77;;
72755;SDS011;60881;55.002;73.232;2022-10-16T13:39:00;32.00;;;10.63;;
72755;SDS011;60881;55.002;73.232;2022-10-16T13:41:40;39.70;;;14.18;;
72755;SDS011;60881;55.002;73.232;2022-10-16T13:44:18;42.30;;;15.23;;
72755;SDS011;60881;55.002;73.232;2022-10-16T13:46:47;35.78;;;14.77;;
72755;SDS011;60881;55.002;73.232;2022-10-16T13:49:28;38.63;;;15.00;;
72755;SDS011;60881;55.002;73.232;2022-10-16T13:52:01;44.53;;;15.32;;
72755;SDS011;60881;55.002;73.232;2022-10-16T13:54:28;44.03;;;17.15;;
72755;SDS011;60881;55.002;73.232;2022-10-16T13:56:55;44.65;;;16.50;;
72755;SDS011;60881;55.002;73.232;2022-10-16T13:59:24;41.60;;;16.38;;
72755;SDS011;60881;55.002;73.232;2022-10-16T14:01:54;51.97;;;16.58;;
72755;SDS011;60881;55.002;73.232;2022-10-16T14:04:23;51.67;;;17.48;;
72755;SDS011;60881;55.002;73.232;2022-10-16T14:06:51;52.28;;;16.40;;
72755;SDS011;60881;55.002;73.232;2022-10-16T14:09:25;47.38;;;17.02;;
72755;SDS011;60881;55.002;73.232;2022-10-16T14:12:12;56.67;;;18.42;;
72755;SDS011;60881;55.002;73.232;2022-10-16T14:14:43;46.08;;;19.13;;
72755;SDS011;60881;55.002;73.232;2022-10-16T14:17:24;61.00;;;21.70;;
72755;SDS011;60881;55.002;73.232;2022-10-16T14:19:54;49.70;;;19.73;;
72755;SDS011;60881;55.002;73.232;2022-10-16T14:22:46;62.83;;;27.42;;
72755;SDS011;60881;55.002;73.232;2022-10-16T14:28:13;84.38;;;38.85;;
72755;SDS011;60881;55.002;73.232;2022-10-16T14:30:54;79.22;;;34.50;;
72755;SDS011;60881;55.002;73.232;2022-10-16T14:35:59;65.70;;;26.40;;
72755;SDS011;60881;55.002;73.232;2022-10-16T14:38:38;72.75;;;27.42;;
72755;SDS011;60881;55.002;73.232;2022-10-16T14:41:05;64.80;;;22.27;;
72755;SDS011;60881;55.002;73.232;2022-10-16T14:46:13;68.95;;;28.83;;
72755;SDS011;60881;55.002;73.232;2022-10-16T14:48:42;75.82;;;27.60;;
72755;SDS011;60881;55.002;73.232;2022-10-16T14:51:16;70.95;;;27.27;;
72755;SDS011;60881;55.002;73.232;2022-10-16T14:53:46;64.13;;;27.48;;
72755;SDS011;60881;55.002;73.232;2022-10-16T14:56:17;66.95;;;28.88;;
72755;SDS011;60881;55.002;73.232;2022-10-16T14:58:49;62.95;;;28.95;;
72755;SDS011;60881;55.002;73.232;2022-10-16T15:01:17;76.70;;;29.05;;
72755;SDS011;60881;55.002;73.232;2022-10-16T15:03:54;77.72;;;33.60;;
72755;SDS011;60881;55.002;73.232;2022-10-16T15:06:22;83.32;;;34.72;;
72755;SDS011;60881;55.002;73.232;2022-10-16T15:08:49;88.18;;;37.75;;
72755;SDS011;60881;55.002;73.232;2022-10-16T15:11:16;88.78;;;34.47;;
72755;SDS011;60881;55.002;73.232;2022-10-16T15:13:44;82.85;;;34.95;;
72755;SDS011;60881;55.002;73.232;2022-10-16T15:16:12;86.18;;;34.83;;
72755;SDS011;60881;55.002;73.232;2022-10-16T15:18:42;75.90;;;31.35;;
72755;SDS011;60881;55.002;73.232;2022-10-16T15:23:54;76.70;;;30.52;;
72755;SDS011;60881;55.002;73.232;2022-10-16T15:26:23;58.35;;;27.20;;
72755;SDS011;60881;55.002;73.232;2022-10-16T15:28:51;59.97;;;26.10;;
72755;SDS011;60881;55.002;73.232;2022-10-16T15:31:18;54.97;;;23.80;;
72755;SDS011;60881;55.002;73.232;2022-10-16T15:33:44;45.60;;;21.88;;
72755;SDS011;60881;55.002;73.232;2022-10-16T15:36:24;52.90;;;18.30;;
72755;SDS011;60881;55.002;73.232;2022-10-16T15:38:56;63.00;;;22.52;;
72755;SDS011;60881;55.002;73.232;2022-10-16T15:41:29;49.92;;;21.63;;
72755;SDS011;60881;55.002;73.232;2022-10-16T15:43:55;54.95;;;25.30;;
72755;SDS011;60881;55.002;73.232;2022-10-16T15:46:23;72.72;;;26.63;;
72755;SDS011;60881;55.002;73.232;2022-10-16T15:49:02;66.30;;;30.38;;
72755;SDS011;60881;55.002;73.232;2022-10-16T15:51:37;66.18;;;28.30;;
72755;SDS011;60881;55.002;73.232;2022-10-16T15:54:08;55.47;;;23.63;;
72755;SDS011;60881;55.002;73.232;2022-10-16T15:56:35;45.60;;;21.52;;
72755;SDS011;60881;55.002;73.232;2022-10-16T15:59:02;48.92;;;19.52;;
72755;SDS011;60881;55.002;73.232;2022-10-16T16:01:34;41.70;;;18.70;;
72755;SDS011;60881;55.002;73.232;2022-10-16T16:04:07;49.13;;;21.65;;
72755;SDS011;60881;55.002;73.232;2022-10-16T16:06:39;42.40;;;17.92;;
72755;SDS011;60881;55.002;73.232;2022-10-16T16:09:13;35.30;;;14.10;;
72755;SDS011;60881;55.002;73.232;2022-10-16T16:11:40;29.33;;;11.75;;
72755;SDS011;60881;55.002;73.232;2022-10-16T16:14:11;26.52;;;10.88;;
72755;SDS011;60881;55.002;73.232;2022-10-16T16:16:39;25.40;;;10.73;;
72755;SDS011;60881;55.002;73.232;2022-10-16T16:19:08;28.92;;;11.15;;
72755;SDS011;60881;55.002;73.232;2022-10-16T16:21:35;23.85;;;9.02;;
72755;SDS011;60881;55.002;73.232;2022-10-16T16:24:01;21.85;;;8.02;;
72755;SDS011;60881;55.002;73.232;2022-10-16T16:26:44;15.40;;;6.03;;
72755;SDS011;60881;55.002;73.232;2022-10-16T16:29:13;14.13;;;5.80;;
72755;SDS011;60881;55.002;73.232;2022-10-16T16:31:42;16.02;;;6.00;;
72755;SDS011;60881;55.002;73.232;2022-10-16T16:34:08;19.63;;;7.10;;
72755;SDS011;60881;55.002;73.232;2022-10-16T16:36:36;16.02;;;7.28;;
72755;SDS011;60881;55.002;73.232;2022-10-16T16:39:03;22.33;;;8.15;;
72755;SDS011;60881;55.002;73.232;2022-10-16T16:41:30;25.23;;;8.05;;
72755;SDS011;60881;55.002;73.232;2022-10-16T16:44:02;20.92;;;7.82;;
72755;SDS011;60881;55.002;73.232;2022-10-16T16:46:30;20.75;;;10.00;;
72755;SDS011;60881;55.002;73.232;2022-10-16T16:48:58;29.48;;;9.88;;
72755;SDS011;60881;55.002;73.232;2022-10-16T16:51:25;25.15;;;9.73;;
72755;SDS011;60881;55.002;73.232;2022-10-16T16:53:52;22.13;;;8.68;;
72755;SDS011;60881;55.002;73.232;2022-10-16T16:56:21;18.73;;;7.70;;